Time;durP1;ratioP1;P1;durP2;ratioP2;P2;SDS_P1;SDS_P2;PMS_P1;PMS_P2;Temp;Humidity;BMP_temperature;BMP_pressure;BME280_temperature;BME280_humidity;BME280_pressure;Samples;Min_cycle;Max_cycle;Signal;HPM_P1;HPM_P2
2021/07/29 00:00:17;;;;;;;3.30;3.00;;;;;;;19.76;79.70;96248.28;4997544;28;20178;-58
2021/07/29 00:02:43;;;;;;;3.17;2.90;;;;;;;19.45;80.38;96245.19;4996922;28;20208;-59
2021/07/29 00:05:08;;;;;;;3.57;3.10;;;;;;;19.26;81.06;96247.75;4997301;28;20329;-58
2021/07/29 00:07:34;;;;;;;3.60;3.30;;;;;;;18.91;82.93;96247.31;4978501;28;20193;-66
2021/07/29 00:09:59;;;;;;;2.60;2.47;;;;;;;18.79;83.41;96254.91;4977497;28;20606;-65
2021/07/29 00:12:25;;;;;;;3.67;2.83;;;;;;;18.74;84.13;96244.28;4986631;28;20200;-59
2021/07/29 00:14:51;;;;;;;3.00;2.73;;;;;;;18.80;83.39;96251.16;5016165;28;20199;-65
2021/07/29 00:17:28;;;;;;;3.90;3.60;;;;;;;18.85;82.85;96251.09;5016450;28;20534;-65
2021/07/29 00:19:54;;;;;;;3.13;2.83;;;;;;;18.98;82.13;96242.47;5016616;28;20415;-66
2021/07/29 00:22:20;;;;;;;3.60;3.00;;;;;;;18.90;82.14;96243.84;4996904;28;20532;-59
2021/07/29 00:24:45;;;;;;;2.90;2.70;;;;;;;18.83;82.66;96250.56;4996373;28;20719;-58
2021/07/29 00:27:10;;;;;;;4.20;3.80;;;;;;;18.87;82.70;96244.44;4996916;28;20248;-66
2021/07/29 00:29:36;;;;;;;4.13;3.03;;;;;;;18.78;82.87;96245.31;4996690;28;20209;-58
2021/07/29 00:32:04;;;;;;;3.47;3.00;;;;;;;18.92;82.44;96239.03;4996907;28;20181;-58
2021/07/29 00:34:29;;;;;;;3.20;2.90;;;;;;;19.02;81.77;96243.50;4996182;28;20189;-66
2021/07/29 00:36:54;;;;;;;4.00;3.63;;;;;;;18.91;82.30;96244.66;4979258;28;20467;-59
2021/07/29 00:39:20;;;;;;;4.10;3.10;;;;;;;19.07;81.74;96240.78;4976178;28;20175;-59
2021/07/29 00:41:47;;;;;;;3.30;3.00;;;;;;;19.07;81.28;96246.91;4976556;28;20167;-66
2021/07/29 00:44:13;;;;;;;2.87;2.67;;;;;;;19.12;81.15;96241.50;4976685;28;20246;-58
2021/07/29 00:46:38;;;;;;;3.40;3.03;;;;;;;19.22;81.10;96240.63;4976797;28;20461;-58
2021/07/29 00:49:05;;;;;;;4.43;2.80;;;;;;;19.18;80.67;96243.06;4977037;28;20648;-58
2021/07/29 00:51:31;;;;;;;3.37;3.17;;;;;;;19.18;80.93;96234.25;4992486;28;20726;-66
2021/07/29 00:53:58;;;;;;;3.00;2.80;;;;;;;19.10;81.37;96238.34;4995773;28;20420;-58
2021/07/29 00:56:23;;;;;;;3.30;3.03;;;;;;;18.96;81.97;96242.75;4996113;28;20499;-59
2021/07/29 00:58:49;;;;;;;3.03;2.83;;;;;;;19.09;81.62;96238.63;4994952;28;20459;-58
2021/07/29 01:01:14;;;;;;;2.90;2.70;;;;;;;18.99;81.87;96230.72;4996040;28;20246;-66
2021/07/29 01:03:40;;;;;;;3.60;3.30;;;;;;;19.01;81.89;96237.34;4995706;28;20179;-58
2021/07/29 01:06:05;;;;;;;3.50;3.20;;;;;;;19.07;81.61;96232.78;4980969;28;20289;-59
2021/07/29 01:08:30;;;;;;;3.30;3.00;;;;;;;18.98;82.35;96234.47;4976464;28;20170;-58
2021/07/29 01:10:56;;;;;;;2.77;2.57;;;;;;;18.99;82.01;96236.84;4976541;28;20304;-66
2021/07/29 01:13:21;;;;;;;3.13;2.90;;;;;;;19.04;82.06;96241.34;4988115;28;20252;-66
2021/07/29 01:15:47;;;;;;;4.53;2.70;;;;;;;19.07;82.18;96236.25;4995801;28;20201;-65
2021/07/29 01:18:12;;;;;;;4.20;3.67;;;;;;;19.00;82.11;96233.13;4995735;28;20541;-58
2021/07/29 01:20:38;;;;;;;3.13;2.93;;;;;;;18.94;82.53;96230.78;4982157;28;20245;-59
2021/07/29 01:23:03;;;;;;;3.33;3.13;;;;;;;18.83;83.23;96223.94;4975889;28;20605;-59
2021/07/29 01:25:28;;;;;;;3.90;3.60;;;;;;;18.89;83.02;96230.81;4976114;28;20744;-59
2021/07/29 01:27:54;;;;;;;3.23;2.93;;;;;;;18.73;83.95;96232.03;4976312;28;20626;-59
2021/07/29 01:30:19;;;;;;;4.13;3.73;;;;;;;18.74;84.18;96229.09;4976200;28;20170;-66
2021/07/29 01:32:44;;;;;;;3.53;3.23;;;;;;;18.73;84.59;96232.03;4975924;28;20171;-59
2021/07/29 01:35:10;;;;;;;3.90;3.60;;;;;;;18.60;85.66;96227.34;4985724;28;20232;-59
2021/07/29 01:37:38;;;;;;;4.50;3.60;;;;;;;18.63;85.73;96218.81;4976116;28;20558;-66
2021/07/29 01:40:03;;;;;;;4.10;3.70;;;;;;;18.76;85.05;96213.63;4976017;28;20949;-58
2021/07/29 01:42:29;;;;;;;3.83;3.53;;;;;;;18.88;84.81;96213.28;4975996;28;20912;-66
2021/07/29 01:44:54;;;;;;;5.23;3.80;;;;;;;18.87;84.98;96217.00;4976418;28;20197;-65
2021/07/29 01:47:19;;;;;;;3.77;3.30;;;;;;;18.69;85.73;96213.19;4975652;28;20217;-66
2021/07/29 01:49:45;;;;;;;5.80;4.30;;;;;;;18.80;85.72;96219.19;4975919;28;20680;-58
2021/07/29 01:52:10;;;;;;;4.30;3.90;;;;;;;18.63;86.57;96214.28;4975287;28;20176;-57
2021/07/29 01:54:36;;;;;;;3.73;3.43;;;;;;;18.52;87.07;96214.63;4975224;28;20216;-66
2021/07/29 01:57:05;;;;;;;5.43;4.20;;;;;;;18.74;86.30;96214.97;4975886;28;20253;-59
2021/07/29 01:59:34;;;;;;;4.70;3.80;;;;;;;18.71;86.67;96212.88;4984033;28;20213;-66
2021/07/29 02:01:59;;;;;;;3.53;3.23;;;;;;;18.69;86.52;96209.72;4995167;28;20411;-66
2021/07/29 02:04:25;;;;;;;4.30;3.93;;;;;;;18.68;86.95;96214.22;4994461;28;20440;-65
2021/07/29 02:06:50;;;;;;;4.00;3.70;;;;;;;18.81;86.05;96208.25;4994801;28;20237;-65
2021/07/29 02:09:15;;;;;;;4.03;3.63;;;;;;;18.82;86.13;96215.19;4994859;28;20185;-59
2021/07/29 02:11:44;;;;;;;4.60;4.00;;;;;;;18.68;86.31;96213.47;4994888;28;20177;-66
2021/07/29 02:14:09;;;;;;;4.10;3.77;;;;;;;18.73;86.69;96216.88;4998156;28;20288;-59
2021/07/29 02:16:35;;;;;;;4.60;4.27;;;;;;;18.75;86.32;96219.25;4975255;28;20564;-59
2021/07/29 02:19:00;;;;;;;4.43;4.13;;;;;;;18.85;85.54;96219.94;4975362;28;20181;-66
2021/07/29 02:21:25;;;;;;;4.17;3.77;;;;;;;18.76;86.16;96213.63;4975424;28;20285;-65
2021/07/29 02:23:51;;;;;;;4.63;4.00;;;;;;;18.46;87.16;96222.66;4974709;28;20198;-59
2021/07/29 02:26:16;;;;;;;5.90;4.20;;;;;;;18.35;87.95;96215.81;4975127;28;20218;-66
2021/07/29 02:28:42;;;;;;;4.40;3.97;;;;;;;18.57;87.15;96217.28;4981504;28;20182;-66
2021/07/29 02:31:07;;;;;;;4.80;4.40;;;;;;;18.54;87.01;96217.81;4976750;28;20185;-59
2021/07/29 02:33:32;;;;;;;4.33;4.03;;;;;;;18.56;87.30;96215.69;4974573;28;20658;-60
2021/07/29 02:35:58;;;;;;;4.50;4.00;;;;;;;18.71;86.60;96218.22;4974841;28;20201;-65
2021/07/29 02:38:23;;;;;;;5.00;4.60;;;;;;;18.62;86.82;96228.69;4974959;28;20174;-59
2021/07/29 02:40:48;;;;;;;5.50;5.00;;;;;;;18.53;87.31;96224.22;4974975;28;20697;-66
2021/07/29 02:43:14;;;;;;;5.50;4.37;;;;;;;18.48;87.22;96225.84;4974620;28;20625;-65
2021/07/29 02:45:39;;;;;;;4.40;4.10;;;;;;;18.39;88.18;96224.03;4990127;28;20675;-65
2021/07/29 02:48:05;;;;;;;5.20;4.70;;;;;;;18.17;88.88;96229.78;4994531;28;20196;-59
2021/07/29 02:50:30;;;;;;;5.20;4.80;;;;;;;17.73;91.13;96231.63;4994300;28;20206;-65
2021/07/29 02:52:56;;;;;;;5.10;4.70;;;;;;;17.72;91.59;96238.00;4993829;28;20169;-59
2021/07/29 02:55:21;;;;;;;5.33;4.80;;;;;;;17.88;90.56;96228.09;4992842;28;20667;-66
2021/07/29 02:57:46;;;;;;;4.90;4.20;;;;;;;17.80;90.76;96234.78;4994002;28;20201;-65
2021/07/29 03:00:12;;;;;;;5.07;4.63;;;;;;;17.75;91.34;96236.69;4976533;28;20221;-58
2021/07/29 03:02:38;;;;;;;5.70;5.17;;;;;;;17.82;90.86;96235.31;4973872;28;20181;-59
2021/07/29 03:05:03;;;;;;;5.33;4.83;;;;;;;17.61;92.07;96231.16;4987017;28;20735;-59
2021/07/29 03:07:31;;;;;;;5.57;5.07;;;;;;;17.68;91.71;96239.66;4994017;28;20255;-59
2021/07/29 03:09:57;;;;;;;5.40;5.00;;;;;;;17.83;91.18;96236.09;4994026;28;20256;-58
2021/07/29 03:12:22;;;;;;;5.40;4.90;;;;;;;17.69;91.50;96232.44;4994025;28;20452;-66
2021/07/29 03:14:47;;;;;;;5.27;4.77;;;;;;;17.71;91.65;96233.78;4993703;28;20240;-59
2021/07/29 03:17:12;;;;;;;5.20;4.63;;;;;;;17.76;91.09;96230.28;4994064;28;20264;-66
2021/07/29 03:19:38;;;;;;;5.07;4.67;;;;;;;17.93;90.53;96226.22;4992490;28;20567;-65
2021/07/29 03:22:04;;;;;;;5.20;4.80;;;;;;;17.99;89.88;96234.97;4984339;28;20182;-65
2021/07/29 03:24:30;;;;;;;5.43;4.93;;;;;;;17.98;89.98;96231.50;4974091;28;20189;-66
2021/07/29 03:26:55;;;;;;;5.83;5.17;;;;;;;17.77;90.90;96226.56;4974461;28;20406;-65
2021/07/29 03:29:20;;;;;;;5.80;5.20;;;;;;;17.91;90.02;96228.34;4973259;28;20517;-65
2021/07/29 03:31:46;;;;;;;5.00;4.60;;;;;;;17.86;90.56;96228.38;4974451;28;20530;-58
2021/07/29 03:34:11;;;;;;;5.70;4.60;;;;;;;17.67;90.95;96234.56;4973906;28;20676;-59
2021/07/29 03:36:37;;;;;;;6.20;5.43;;;;;;;17.54;92.43;96233.31;4981789;28;20340;-59
2021/07/29 03:39:05;;;;;;;4.73;4.33;;;;;;;17.55;92.08;96231.44;4982944;28;20689;-65
2021/07/29 03:41:31;;;;;;;5.43;4.93;;;;;;;17.73;91.21;96228.19;4974250;28;20896;-58
2021/07/29 03:43:56;;;;;;;4.70;4.40;;;;;;;17.83;90.52;96234.22;4974020;28;20489;-65
2021/07/29 03:46:21;;;;;;;5.27;4.77;;;;;;;17.58;91.39;96242.34;4974151;28;20182;-65
2021/07/29 03:48:47;;;;;;;5.20;4.70;;;;;;;17.47;92.39;96240.78;4974253;28;20186;-59
2021/07/29 03:51:13;;;;;;;7.03;5.37;;;;;;;17.26;93.25;96234.72;4974262;28;20190;-65
2021/07/29 03:53:38;;;;;;;6.17;5.40;;;;;;;17.32;93.33;96244.25;4982863;28;20177;-65
2021/07/29 03:56:04;;;;;;;4.87;4.47;;;;;;;17.41;92.44;96242.63;4993614;28;20300;-65
2021/07/29 03:58:29;;;;;;;5.10;4.60;;;;;;;17.37;92.52;96238.13;4993486;28;20216;-65
2021/07/29 04:00:57;;;;;;;5.33;4.83;;;;;;;17.18;93.83;96242.44;4993728;28;20169;-60
2021/07/29 04:03:23;;;;;;;6.10;5.30;;;;;;;17.26;93.33;96249.84;4993237;28;20201;-65
2021/07/29 04:05:49;;;;;;;5.47;4.23;;;;;;;17.10;94.05;96254.41;4993413;28;20467;-59
2021/07/29 04:08:14;;;;;;;5.63;5.20;;;;;;;16.90;95.47;96251.81;4985061;28;20186;-66
2021/07/29 04:10:39;;;;;;;5.13;4.63;;;;;;;17.10;94.70;96249.09;4974188;28;20409;-59
2021/07/29 04:13:05;;;;;;;5.20;4.40;;;;;;;17.31;93.00;96253.28;4993641;28;20302;-65
2021/07/29 04:15:30;;;;;;;4.97;4.33;;;;;;;17.40;92.52;96257.00;5015532;28;20679;-65
2021/07/29 04:17:55;;;;;;;4.57;4.13;;;;;;;17.54;91.05;96265.19;5016666;28;20655;-59
2021/07/29 04:20:21;;;;;;;5.10;4.60;;;;;;;17.46;91.42;96258.53;5016672;28;20172;-65
2021/07/29 04:22:46;;;;;;;5.73;5.10;;;;;;;17.72;90.60;96256.63;5008159;28;20209;-59
2021/07/29 04:25:11;;;;;;;5.13;4.23;;;;;;;17.29;92.22;96257.28;4996643;28;20683;-66
2021/07/29 04:27:37;;;;;;;4.50;4.10;;;;;;;17.52;91.09;96262.00;4996703;28;20224;-66
2021/07/29 04:30:02;;;;;;;4.83;3.90;;;;;;;17.30;92.20;96264.19;4996758;28;20239;-66
2021/07/29 04:32:34;;;;;;;4.30;3.70;;;;;;;17.48;91.38;96272.38;4996618;28;20174;-65
2021/07/29 04:35:00;;;;;;;5.03;4.63;;;;;;;17.51;90.79;96259.63;4996462;28;20213;-65
2021/07/29 04:37:25;;;;;;;6.73;4.90;;;;;;;17.52;90.87;96267.31;4990212;28;20504;-59
2021/07/29 04:39:50;;;;;;;5.27;4.27;;;;;;;17.38;91.80;96263.63;4977155;28;20202;-59
2021/07/29 04:42:16;;;;;;;5.33;4.20;;;;;;;17.42;91.50;96265.47;4977233;28;20181;-65
2021/07/29 04:44:41;;;;;;;4.53;4.17;;;;;;;17.46;90.94;96260.44;4976707;28;20220;-66
2021/07/29 04:47:07;;;;;;;4.67;4.27;;;;;;;17.38;91.60;96268.94;4976775;28;20182;-65
2021/07/29 04:49:32;;;;;;;7.27;4.57;;;;;;;17.42;91.51;96262.81;4976845;28;20524;-59
2021/07/29 04:51:58;;;;;;;4.87;4.17;;;;;;;17.72;90.19;96264.59;4980995;28;20191;-59
2021/07/29 04:54:23;;;;;;;4.43;4.03;;;;;;;17.75;89.60;96263.25;4989359;28;20198;-59
2021/07/29 04:56:48;;;;;;;3.80;3.50;;;;;;;17.63;89.87;96260.91;4976842;28;20237;-59
2021/07/29 04:59:14;;;;;;;5.30;4.10;;;;;;;17.59;90.56;96262.53;4976686;28;20166;-58
2021/07/29 05:01:39;;;;;;;6.53;4.20;;;;;;;17.41;91.49;96268.41;4976794;28;20633;-59
2021/07/29 05:04:05;;;;;;;4.90;4.50;;;;;;;17.48;91.28;96262.84;4976333;28;20194;-59
2021/07/29 05:06:31;;;;;;;4.23;3.67;;;;;;;17.38;91.82;96260.97;4976535;28;20166;-59
2021/07/29 05:08:56;;;;;;;4.67;4.10;;;;;;;17.39;91.91;96271.31;4994348;28;20783;-66
2021/07/29 05:11:22;;;;;;;5.57;4.20;;;;;;;17.65;90.97;96268.59;4994785;28;20235;-58
2021/07/29 05:13:47;;;;;;;4.33;3.90;;;;;;;17.71;90.33;96263.00;4995664;28;20174;-65
2021/07/29 05:16:12;;;;;;;3.77;3.37;;;;;;;17.59;90.93;96259.88;4995867;28;20194;-65
2021/07/29 05:18:38;;;;;;;6.90;3.77;;;;;;;17.84;90.07;96267.75;4995818;28;20666;-59
2021/07/29 05:21:05;;;;;;;4.27;3.97;;;;;;;17.94;89.83;96272.19;4995752;28;20624;-59
2021/07/29 05:23:31;;;;;;;5.13;4.03;;;;;;;18.12;89.40;96264.38;4978537;28;20170;-66
2021/07/29 05:25:57;;;;;;;4.00;3.70;;;;;;;18.22;88.75;96258.22;4975531;28;20427;-65
2021/07/29 05:28:23;;;;;;;3.90;3.50;;;;;;;18.19;88.56;96253.47;4976340;28;20178;-59
2021/07/29 05:30:48;;;;;;;4.77;4.00;;;;;;;18.33;88.41;96262.41;4975007;28;20409;-65
2021/07/29 05:33:14;;;;;;;4.20;3.90;;;;;;;18.48;87.48;96257.78;4975912;28;20166;-59
2021/07/29 05:35:40;;;;;;;4.10;3.80;;;;;;;18.71;86.69;96258.16;4975913;28;20190;-65
2021/07/29 05:38:05;;;;;;;4.00;3.57;;;;;;;18.59;87.09;96255.84;4989799;28;20432;-65
2021/07/29 05:40:31;;;;;;;3.40;3.20;;;;;;;18.57;87.19;96251.88;4995504;28;20170;-65
2021/07/29 05:42:58;;;;;;;4.47;4.07;;;;;;;18.75;86.43;96256.53;4995133;28;20173;-66
2021/07/29 05:45:24;;;;;;;3.20;3.00;;;;;;;18.73;87.20;96259.47;4995203;28;20201;-59
2021/07/29 05:47:50;;;;;;;3.50;3.20;;;;;;;18.69;87.02;96253.09;4995371;28;20397;-66
2021/07/29 05:50:15;;;;;;;3.30;3.10;;;;;;;18.79;86.82;96260.22;4995489;28;20405;-65
2021/07/29 05:52:41;;;;;;;3.60;3.30;;;;;;;18.92;86.58;96262.22;4980523;28;20178;-65
2021/07/29 05:55:06;;;;;;;3.73;3.23;;;;;;;18.88;86.10;96266.53;4975592;28;20545;-66
2021/07/29 05:57:35;;;;;;;3.73;3.43;;;;;;;18.96;86.03;96264.06;4975215;28;20202;-59
2021/07/29 06:00:00;;;;;;;3.60;3.30;;;;;;;19.13;85.82;96268.97;4975780;28;20196;-65
2021/07/29 06:02:26;;;;;;;4.00;3.50;;;;;;;19.19;84.89;96268.63;4975480;28;20896;-59
2021/07/29 06:04:52;;;;;;;3.40;3.10;;;;;;;19.25;84.79;96275.50;4975086;28;20699;-65
2021/07/29 06:07:18;;;;;;;3.80;3.50;;;;;;;18.87;86.15;96275.56;4988346;28;20551;-59
2021/07/29 06:09:43;;;;;;;3.70;3.40;;;;;;;19.05;85.64;96273.03;4993637;28;20867;-59
2021/07/29 06:12:09;;;;;;;3.70;3.40;;;;;;;19.37;84.46;96275.13;4997174;28;20412;-65
2021/07/29 06:14:34;;;;;;;3.67;3.37;;;;;;;19.39;84.00;96270.28;5013842;28;20199;-65
2021/07/29 06:17:00;;;;;;;3.87;3.57;;;;;;;19.33;83.93;96272.22;5014884;28;20275;-59
2021/07/29 06:19:34;;;;;;;4.00;3.70;;;;;;;19.25;85.35;96269.34;5014265;28;20666;-65
2021/07/29 06:22:00;;;;;;;4.60;3.70;;;;;;;19.25;85.77;96272.81;5000325;28;20204;-59
2021/07/29 06:24:27;;;;;;;4.77;3.83;;;;;;;19.34;84.92;96273.03;4977561;28;20445;-67
2021/07/29 06:26:53;;;;;;;6.03;3.67;;;;;;;19.51;84.71;96280.56;4975281;28;20404;-60
2021/07/29 06:29:19;;;;;;;4.23;3.83;;;;;;;19.56;84.19;96278.66;4975218;28;20408;-66
2021/07/29 06:31:45;;;;;;;4.00;3.07;;;;;;;19.65;83.38;96268.16;4975243;28;20464;-66
2021/07/29 06:34:10;;;;;;;4.77;3.67;;;;;;;19.77;83.32;96274.66;4974632;28;20425;-66
2021/07/29 06:36:35;;;;;;;4.40;3.77;;;;;;;19.86;82.85;96275.59;4975077;28;20204;-67
2021/07/29 06:39:02;;;;;;;5.10;3.70;;;;;;;19.87;82.77;96274.53;4980914;28;20174;-59
2021/07/29 06:41:27;;;;;;;4.47;3.80;;;;;;;20.04;82.12;96279.38;4993588;28;20188;-64
2021/07/29 06:43:52;;;;;;;3.80;3.50;;;;;;;20.00;81.50;96281.81;4993842;28;20436;-64
2021/07/29 06:46:18;;;;;;;3.77;3.40;;;;;;;19.96;81.74;96280.84;4994104;28;20223;-59
2021/07/29 06:48:43;;;;;;;4.40;4.00;;;;;;;19.91;82.37;96280.09;4994341;28;20531;-64
2021/07/29 06:51:09;;;;;;;3.53;3.23;;;;;;;19.81;82.37;96280.22;4994401;28;20196;-64
2021/07/29 06:53:36;;;;;;;3.87;3.00;;;;;;;19.85;82.14;96286.56;4993799;28;20172;-60
2021/07/29 06:56:06;;;;;;;3.83;3.43;;;;;;;20.08;81.97;96291.06;4976718;28;20604;-61
2021/07/29 06:58:31;;;;;;;4.20;3.90;;;;;;;20.21;81.17;96290.38;4975142;28;20979;-64
2021/07/29 07:01:01;;;;;;;3.60;3.30;;;;;;;20.16;80.49;96293.09;4974590;28;20492;-59
2021/07/29 07:03:27;;;;;;;4.13;3.43;;;;;;;20.15;81.25;96297.63;4974252;28;20166;-64
2021/07/29 07:05:53;;;;;;;4.90;3.63;;;;;;;20.32;80.49;96297.19;4983374;28;20442;-58
2021/07/29 07:08:18;;;;;;;4.07;3.77;;;;;;;20.27;80.86;96289.25;5013718;28;20408;-64
2021/07/29 07:10:44;;;;;;;5.27;3.80;;;;;;;20.28;80.70;96301.50;4995256;28;20177;-63
2021/07/29 07:13:09;;;;;;;4.00;3.70;;;;;;;20.16;80.32;96293.91;5004143;28;20227;-59
2021/07/29 07:15:35;;;;;;;4.00;3.67;;;;;;;20.34;79.56;96295.03;5013449;28;20185;-59
2021/07/29 07:18:00;;;;;;;3.70;3.40;;;;;;;20.30;79.90;96294.00;5013128;28;20275;-64
2021/07/29 07:20:25;;;;;;;3.47;3.20;;;;;;;20.12;80.55;96295.56;5013550;28;20256;-59
2021/07/29 07:22:52;;;;;;;3.83;3.50;;;;;;;20.13;78.42;96293.66;5013257;28;20657;-64
2021/07/29 07:25:18;;;;;;;4.13;3.07;;;;;;;20.20;77.06;96292.25;4989558;28;20281;-60
2021/07/29 07:27:43;;;;;;;4.93;3.30;;;;;;;20.16;76.10;96287.78;4992934;28;20498;-59
2021/07/29 07:30:09;;;;;;;3.77;3.37;;;;;;;20.05;76.63;96300.47;4998550;28;20923;-59
2021/07/29 07:32:35;;;;;;;3.97;3.57;;;;;;;20.25;77.31;96300.22;4993623;28;20501;-62
2021/07/29 07:35:01;;;;;;;4.00;3.40;;;;;;;20.32;75.26;96306.00;4994007;28;20435;-65
2021/07/29 07:37:30;;;;;;;4.17;3.50;;;;;;;20.32;74.83;96292.66;4992683;28;20197;-65
2021/07/29 07:39:55;;;;;;;3.87;3.53;;;;;;;20.55;74.95;96290.16;4993402;28;20460;-60
2021/07/29 07:42:21;;;;;;;5.73;3.60;;;;;;;20.71;73.76;96289.63;4993702;28;20455;-63
2021/07/29 07:44:46;;;;;;;4.23;3.50;;;;;;;20.71;73.92;96294.97;4993297;28;20186;-58
2021/07/29 07:47:12;;;;;;;4.00;3.70;;;;;;;20.76;73.26;96291.44;4993663;28;20169;-58
2021/07/29 07:49:40;;;;;;;4.20;3.80;;;;;;;21.07;73.22;96303.28;4978784;28;20236;-65
2021/07/29 07:52:09;;;;;;;3.90;3.50;;;;;;;20.81;73.02;96302.06;4984204;28;20181;-57
2021/07/29 07:54:35;;;;;;;4.03;3.63;;;;;;;20.66;72.58;96296.94;4993243;28;20463;-58
2021/07/29 07:57:01;;;;;;;3.50;3.20;;;;;;;20.81;71.34;96292.16;4993789;28;20483;-61
2021/07/29 07:59:26;;;;;;;4.13;3.53;;;;;;;20.67;72.34;96288.66;4993813;28;20946;-66
2021/07/29 08:01:52;;;;;;;3.10;2.90;;;;;;;20.68;73.61;96295.56;4993913;28;20232;-62
2021/07/29 08:04:17;;;;;;;4.37;3.43;;;;;;;20.94;72.82;96291.44;4993437;28;20248;-65
2021/07/29 08:06:42;;;;;;;3.63;3.20;;;;;;;20.99;74.11;96291.38;4988541;28;20170;-64
2021/07/29 08:09:08;;;;;;;4.03;3.63;;;;;;;21.15;72.78;96295.38;4974094;28;20213;-62
2021/07/29 08:11:33;;;;;;;4.10;3.20;;;;;;;20.75;71.15;96296.00;4992783;28;20518;-63
2021/07/29 08:13:58;;;;;;;3.80;3.50;;;;;;;20.66;69.98;96289.72;5010396;28;20224;-61
2021/07/29 08:16:24;;;;;;;4.53;3.40;;;;;;;20.82;71.23;96295.59;5005999;28;20201;-58
2021/07/29 08:18:50;;;;;;;3.77;3.47;;;;;;;20.93;70.25;96291.69;4993042;28;20614;-60
2021/07/29 08:21:15;;;;;;;4.30;3.90;;;;;;;20.87;71.72;96293.66;4993046;28;20231;-60
2021/07/29 08:23:42;;;;;;;4.17;3.77;;;;;;;21.17;70.90;96300.41;4992931;28;20181;-61
2021/07/29 08:26:10;;;;;;;3.87;3.57;;;;;;;21.33;69.68;96285.69;4993342;28;20169;-63
2021/07/29 08:28:39;;;;;;;4.93;3.90;;;;;;;21.38;67.93;96281.03;4995257;28;20771;-59
2021/07/29 08:31:06;;;;;;;4.23;3.77;;;;;;;21.27;68.62;96286.88;4996754;28;20411;-64
2021/07/29 08:33:31;;;;;;;4.43;4.00;;;;;;;21.41;68.39;96283.09;4996262;28;20412;-64
2021/07/29 08:35:56;;;;;;;4.33;3.20;;;;;;;21.35;66.38;96284.31;4993243;28;20825;-60
2021/07/29 08:38:22;;;;;;;3.67;3.37;;;;;;;21.25;66.02;96283.72;4977704;28;20562;-60
2021/07/29 08:40:52;;;;;;;4.63;3.97;;;;;;;21.32;66.36;96289.47;4977106;28;20176;-64
2021/07/29 08:43:17;;;;;;;3.83;3.43;;;;;;;21.43;66.16;96294.31;4976676;28;20174;-60
2021/07/29 08:45:44;;;;;;;4.43;3.60;;;;;;;21.36;68.16;96285.88;4990602;28;20539;-59
2021/07/29 08:48:10;;;;;;;5.43;4.00;;;;;;;21.35;65.28;96286.19;4996427;28;20297;-65
2021/07/29 08:50:37;;;;;;;4.83;2.73;;;;;;;21.01;67.50;96288.41;4996432;28;20895;-65
2021/07/29 08:53:02;;;;;;;3.77;3.47;;;;;;;21.18;66.39;96293.97;4993736;28;21020;-64
2021/07/29 08:55:28;;;;;;;4.80;3.70;;;;;;;21.19;65.19;96290.22;4994695;28;20467;-60
2021/07/29 08:57:53;;;;;;;3.47;3.27;;;;;;;21.40;65.62;96291.44;4989541;28;20567;-59
2021/07/29 09:00:19;;;;;;;6.30;3.70;;;;;;;21.41;65.07;96299.16;4976251;28;20174;-59
2021/07/29 09:02:45;;;;;;;5.47;4.00;;;;;;;21.52;63.59;96290.97;4975901;28;20205;-59
2021/07/29 09:05:23;;;;;;;4.03;3.73;;;;;;;21.80;61.70;96280.00;4976595;28;20205;-65
2021/07/29 09:08:02;;;;;;;3.67;3.33;;;;;;;22.07;60.13;96276.47;4976832;28;20174;-60
2021/07/29 09:10:28;;;;;;;5.37;3.73;;;;;;;22.06;58.17;96297.13;5001176;28;20459;-65
2021/07/29 09:13:17;;;;;;;3.83;3.50;;;;;;;22.27;58.89;96281.41;5015125;28;21141;-59
2021/07/29 09:15:44;;;;;;;6.80;4.53;;;;;;;22.38;58.58;96280.09;5015391;28;20258;-60
2021/07/29 09:18:09;;;;;;;4.40;3.60;;;;;;;22.42;59.01;96281.88;5015211;28;20506;-59
2021/07/29 09:20:36;;;;;;;3.57;3.27;;;;;;;22.52;59.65;96274.69;5015249;28;20427;-64
2021/07/29 09:23:18;;;;;;;4.27;3.87;;;;;;;22.39;59.18;96290.50;4995471;28;20181;-65
2021/07/29 09:25:46;;;;;;;4.40;3.63;;;;;;;22.35;58.90;96292.22;4995270;28;20543;-64
2021/07/29 09:28:31;;;;;;;5.77;3.77;;;;;;;22.41;60.23;96285.63;4992401;28;20967;-64
2021/07/29 09:30:57;;;;;;;3.80;3.50;;;;;;;22.36;59.46;96282.28;4976571;28;20425;-65
2021/07/29 09:33:22;;;;;;;3.80;3.50;;;;;;;22.63;60.74;96279.53;4975838;28;20429;-60
2021/07/29 09:35:52;;;;;;;4.30;3.93;;;;;;;22.68;59.87;96279.44;4975798;28;20198;-65
2021/07/29 09:38:31;;;;;;;4.30;3.90;;;;;;;22.65;58.44;96281.94;4976162;28;20166;-64
2021/07/29 09:41:06;;;;;;;4.10;3.70;;;;;;;22.66;60.45;96283.50;4975870;28;20394;-60
2021/07/29 09:43:34;;;;;;;4.63;4.00;;;;;;;22.93;60.08;96284.19;4976229;28;20749;-64
2021/07/29 09:46:01;;;;;;;4.20;3.80;;;;;;;22.65;58.19;96282.69;4995375;28;20912;-64
2021/07/29 09:48:27;;;;;;;4.10;3.77;;;;;;;22.52;60.26;96292.34;5014745;28;20408;-60
2021/07/29 09:50:55;;;;;;;4.00;3.60;;;;;;;22.53;60.35;96285.09;5014838;28;20761;-59
2021/07/29 09:53:23;;;;;;;5.07;3.43;;;;;;;22.59;59.79;96275.09;5013000;28;20914;-60
2021/07/29 09:55:49;;;;;;;4.83;3.30;;;;;;;22.69;59.18;96275.66;5014475;28;20792;-64
2021/07/29 09:58:14;;;;;;;4.50;3.57;;;;;;;22.63;59.25;96266.13;5009942;28;20424;-64
2021/07/29 10:00:39;;;;;;;3.73;3.43;;;;;;;22.58;59.13;96276.97;4993727;28;20509;-60
2021/07/29 10:03:07;;;;;;;4.53;4.10;;;;;;;22.29;58.64;96271.97;4994511;28;20249;-64
2021/07/29 10:05:42;;;;;;;3.70;3.40;;;;;;;22.25;60.21;96268.31;4994809;28;20228;-64
2021/07/29 10:08:15;;;;;;;3.80;3.50;;;;;;;22.18;59.46;96281.31;4990634;28;20428;-65
2021/07/29 10:10:43;;;;;;;4.03;3.73;;;;;;;22.32;57.99;96276.72;4994245;28;20431;-60
2021/07/29 10:13:09;;;;;;;3.43;3.00;;;;;;;22.03;58.65;96278.97;4994086;28;20491;-65
2021/07/29 10:15:40;;;;;;;3.80;3.50;;;;;;;22.08;58.91;96264.69;4994780;28;20463;-60
2021/07/29 10:18:08;;;;;;;4.00;3.60;;;;;;;22.00;58.24;96268.88;4994609;28;20197;-65
2021/07/29 10:20:35;;;;;;;4.77;4.33;;;;;;;22.27;60.11;96263.47;4994516;28;20495;-60
2021/07/29 10:23:12;;;;;;;4.23;3.90;;;;;;;22.67;56.47;96258.28;4993788;28;20424;-65
2021/07/29 10:25:53;;;;;;;4.07;3.67;;;;;;;22.47;56.40;96257.66;4994447;28;20471;-64
2021/07/29 10:28:25;;;;;;;4.10;3.70;;;;;;;22.63;55.60;96263.44;4994473;28;20412;-65
2021/07/29 10:31:00;;;;;;;4.07;3.77;;;;;;;22.58;56.49;96255.53;4988955;28;20418;-65
2021/07/29 10:33:28;;;;;;;6.20;3.63;;;;;;;22.94;57.24;96247.41;4989540;28;20422;-64
2021/07/29 10:35:57;;;;;;;4.70;4.10;;;;;;;23.32;56.16;96246.72;4994236;28;20440;-64
2021/07/29 10:38:38;;;;;;;4.47;4.07;;;;;;;23.18;55.99;96248.69;4994456;28;20397;-65
2021/07/29 10:41:05;;;;;;;4.73;4.33;;;;;;;23.54;57.17;96253.09;4993811;28;20773;-60
2021/07/29 10:43:30;;;;;;;4.00;3.70;;;;;;;23.86;55.11;96244.72;4993677;28;20947;-60
2021/07/29 10:45:57;;;;;;;5.47;4.33;;;;;;;23.50;53.32;96239.53;4995290;28;20475;-59
2021/07/29 10:48:44;;;;;;;5.37;4.33;;;;;;;23.82;54.39;96246.44;5013816;28;20168;-60
2021/07/29 10:51:24;;;;;;;4.73;4.30;;;;;;;23.79;54.07;96239.78;5013800;28;20419;-60
2021/07/29 10:53:51;;;;;;;4.37;4.07;;;;;;;23.82;51.59;96243.75;5013199;28;20430;-64
2021/07/29 10:56:19;;;;;;;4.50;4.10;;;;;;;23.53;53.52;96246.97;5003429;28;20460;-59
2021/07/29 10:58:50;;;;;;;4.77;4.03;;;;;;;23.20;54.26;96253.72;4974840;28;20410;-65
2021/07/29 11:01:16;;;;;;;5.10;4.60;;;;;;;23.22;54.70;96248.84;4974731;28;20406;-65
2021/07/29 11:03:53;;;;;;;4.50;3.67;;;;;;;23.25;55.25;96242.88;4974257;28;20409;-65
2021/07/29 11:06:33;;;;;;;4.50;4.10;;;;;;;23.37;53.14;96243.13;4974754;28;20397;-65
2021/07/29 11:09:09;;;;;;;4.03;3.63;;;;;;;23.45;54.21;96247.72;4973243;28;20413;-65
2021/07/29 11:11:39;;;;;;;4.53;4.13;;;;;;;23.38;53.74;96242.00;4984560;28;20458;-65
2021/07/29 11:14:05;;;;;;;3.90;3.70;;;;;;;23.41;51.95;96238.69;4993489;28;20432;-61
2021/07/29 11:16:32;;;;;;;4.90;4.50;;;;;;;23.80;54.02;96241.38;4993916;28;21037;-64
2021/07/29 11:18:59;;;;;;;6.23;4.10;;;;;;;23.78;52.47;96235.53;4993816;28;20458;-64
2021/07/29 11:21:24;;;;;;;4.97;4.57;;;;;;;23.81;53.12;96237.56;4980486;28;20488;-61
2021/07/29 11:23:50;;;;;;;4.30;3.90;;;;;;;24.02;51.75;96222.50;4974136;28;20948;-66
2021/07/29 11:26:15;;;;;;;4.27;3.97;;;;;;;24.19;52.08;96227.06;4985657;28;20702;-66
2021/07/29 11:28:40;;;;;;;3.97;3.67;;;;;;;24.46;51.27;96232.94;4997744;28;20204;-66
2021/07/29 11:31:06;;;;;;;4.27;3.87;;;;;;;24.56;52.25;96222.97;4997850;28;20165;-61